sensor_id;sensor_type;location;lat;lon;timestamp;temperature;humidity
27633;DHT22;15046;50.930;13.334;2024-02-21T00:00:51;6.60;99.90
27633;DHT22;15046;50.930;13.334;2024-02-21T00:03:17;6.60;99.90
27633;DHT22;15046;50.930;13.334;2024-02-21T00:05:42;6.60;99.90
27633;DHT22;15046;50.930;13.334;2024-02-21T00:08:08;6.60;99.90
27633;DHT22;15046;50.930;13.334;2024-02-21T00:10:34;6.60;99.90
27633;DHT22;15046;50.930;13.334;2024-02-21T00:13:01;6.60;99.90
27633;DHT22;15046;50.930;13.334;2024-02-21T00:15:27;6.60;99.90
27633;DHT22;15046;50.930;13.334;2024-02-21T00:17:52;6.60;99.90
27633;DHT22;15046;50.930;13.334;2024-02-21T00:20:19;6.60;99.90
27633;DHT22;15046;50.930;13.334;2024-02-21T00:22:45;6.60;99.90
27633;DHT22;15046;50.930;13.334;2024-02-21T00:25:11;6.60;99.90
27633;DHT22;15046;50.930;13.334;2024-02-21T00:27:37;6.50;99.90
27633;DHT22;15046;50.930;13.334;2024-02-21T00:30:03;6.50;99.90
27633;DHT22;15046;50.930;13.334;2024-02-21T00:32:29;6.50;99.90
27633;DHT22;15046;50.930;13.334;2024-02-21T00:34:55;6.50;99.90
27633;DHT22;15046;50.930;13.334;2024-02-21T00:37:21;6.50;99.90
27633;DHT22;15046;50.930;13.334;2024-02-21T00:39:46;6.50;99.90
27633;DHT22;15046;50.930;13.334;2024-02-21T00:42:12;6.50;99.90
27633;DHT22;15046;50.930;13.334;2024-02-21T00:44:38;6.40;99.90
27633;DHT22;15046;50.930;13.334;2024-02-21T00:47:04;6.40;99.90
27633;DHT22;15046;50.930;13.334;2024-02-21T00:49:30;6.40;99.90
27633;DHT22;15046;50.930;13.334;2024-02-21T00:51:55;6.40;99.90
27633;DHT22;15046;50.930;13.334;2024-02-21T00:54:21;6.40;99.90
27633;DHT22;15046;50.930;13.334;2024-02-21T00:56:48;6.30;99.90
27633;DHT22;15046;50.930;13.334;2024-02-21T00:59:14;6.30;99.90
27633;DHT22;15046;50.930;13.334;2024-02-21T01:01:40;6.30;99.90
27633;DHT22;15046;50.930;13.334;2024-02-21T01:04:09;6.30;99.90
27633;DHT22;15046;50.930;13.334;2024-02-21T01:06:35;6.30;99.90
27633;DHT22;15046;50.930;13.334;2024-02-21T01:09:01;6.30;99.90
27633;DHT22;15046;50.930;13.334;2024-02-21T01:11:27;6.30;99.90
27633;DHT22;15046;50.930;13.334;2024-02-21T01:13:53;6.30;99.90
27633;DHT22;15046;50.930;13.334;2024-02-21T01:16:19;6.30;99.90
27633;DHT22;15046;50.930;13.334;2024-02-21T01:18:44;6.30;99.90
27633;DHT22;15046;50.930;13.334;2024-02-21T01:21:10;6.30;99.90
27633;DHT22;15046;50.930;13.334;2024-02-21T01:23:36;6.30;99.90
27633;DHT22;15046;50.930;13.334;2024-02-21T01:26:03;6.20;99.90
27633;DHT22;15046;50.930;13.334;2024-02-21T01:28:30;6.20;99.90
27633;DHT22;15046;50.930;13.334;2024-02-21T01:30:56;6.20;99.90
27633;DHT22;15046;50.930;13.334;2024-02-21T01:33:22;6.10;99.90
27633;DHT22;15046;50.930;13.334;2024-02-21T01:35:48;6.10;99.90
27633;DHT22;15046;50.930;13.334;2024-02-21T01:38:15;6.20;99.90
27633;DHT22;15046;50.930;13.334;2024-02-21T01:40:40;6.10;99.90
27633;DHT22;15046;50.930;13.334;2024-02-21T01:43:16;6.10;99.90
27633;DHT22;15046;50.930;13.334;2024-02-21T01:45:43;6.10;99.90
27633;DHT22;15046;50.930;13.334;2024-02-21T01:48:08;6.20;99.90
27633;DHT22;15046;50.930;13.334;2024-02-21T01:50:35;6.10;99.90
27633;DHT22;15046;50.930;13.334;2024-02-21T01:53:02;6.20;99.90
27633;DHT22;15046;50.930;13.334;2024-02-21T01:55:28;6.20;99.90
27633;DHT22;15046;50.930;13.334;2024-02-21T01:57:54;6.20;99.90
27633;DHT22;15046;50.930;13.334;2024-02-21T02:00:20;6.20;99.90
27633;DHT22;15046;50.930;13.334;2024-02-21T02:02:46;6.20;99.90
27633;DHT22;15046;50.930;13.334;2024-02-21T02:05:11;6.30;99.90
27633;DHT22;15046;50.930;13.334;2024-02-21T02:07:37;6.30;99.90
27633;DHT22;15046;50.930;13.334;2024-02-21T02:10:03;6.40;99.90
27633;DHT22;15046;50.930;13.334;2024-02-21T02:12:29;6.30;99.90
27633;DHT22;15046;50.930;13.334;2024-02-21T02:15:02;6.30;99.90
27633;DHT22;15046;50.930;13.334;2024-02-21T02:17:31;6.40;99.90
27633;DHT22;15046;50.930;13.334;2024-02-21T02:19:57;6.30;99.90
27633;DHT22;15046;50.930;13.334;2024-02-21T02:22:28;6.30;99.90
27633;DHT22;15046;50.930;13.334;2024-02-21T02:24:54;6.30;99.90
27633;DHT22;15046;50.930;13.334;2024-02-21T02:27:20;6.30;99.90
27633;DHT22;15046;50.930;13.334;2024-02-21T02:29:45;6.20;99.90
27633;DHT22;15046;50.930;13.334;2024-02-21T02:32:20;6.20;99.90
27633;DHT22;15046;50.930;13.334;2024-02-21T02:34:46;6.20;99.90
27633;DHT22;15046;50.930;13.334;2024-02-21T02:37:12;6.20;99.90
27633;DHT22;15046;50.930;13.334;2024-02-21T02:39:37;6.20;99.90
27633;DHT22;15046;50.930;13.334;2024-02-21T02:42:03;6.20;99.90
27633;DHT22;15046;50.930;13.334;2024-02-21T02:44:29;6.20;99.90
27633;DHT22;15046;50.930;13.334;2024-02-21T02:46:55;6.20;99.90
27633;DHT22;15046;50.930;13.334;2024-02-21T02:49:21;6.20;99.90
27633;DHT22;15046;50.930;13.334;2024-02-21T02:51:47;6.20;99.90
27633;DHT22;15046;50.930;13.334;2024-02-21T02:54:12;6.20;99.90
27633;DHT22;15046;50.930;13.334;2024-02-21T02:56:38;6.20;99.90
27633;DHT22;15046;50.930;13.334;2024-02-21T02:59:04;6.20;99.90
27633;DHT22;15046;50.930;13.334;2024-02-21T03:01:33;6.30;99.90
27633;DHT22;15046;50.930;13.334;2024-02-21T03:03:59;6.30;99.90
27633;DHT22;15046;50.930;13.334;2024-02-21T03:06:25;6.30;99.90
27633;DHT22;15046;50.930;13.334;2024-02-21T03:08:51;6.30;99.90
27633;DHT22;15046;50.930;13.334;2024-02-21T03:11:20;6.40;99.90
27633;DHT22;15046;50.930;13.334;2024-02-21T03:13:46;6.40;99.90
27633;DHT22;15046;50.930;13.334;2024-02-21T03:16:12;6.40;99.90
27633;DHT22;15046;50.930;13.334;2024-02-21T03:18:38;6.40;99.90
27633;DHT22;15046;50.930;13.334;2024-02-21T03:21:03;6.40;99.90
27633;DHT22;15046;50.930;13.334;2024-02-21T03:23:29;6.40;99.90
27633;DHT22;15046;50.930;13.334;2024-02-21T03:25:55;6.40;99.90
27633;DHT22;15046;50.930;13.334;2024-02-21T03:28:21;6.40;99.90
27633;DHT22;15046;50.930;13.334;2024-02-21T03:30:47;6.40;99.90
27633;DHT22;15046;50.930;13.334;2024-02-21T03:33:12;6.40;99.90
27633;DHT22;15046;50.930;13.334;2024-02-21T03:35:38;6.40;99.90
27633;DHT22;15046;50.930;13.334;2024-02-21T03:38:04;6.40;99.90
27633;DHT22;15046;50.930;13.334;2024-02-21T03:40:29;6.40;99.90
27633;DHT22;15046;50.930;13.334;2024-02-21T03:42:55;6.40;99.90
27633;DHT22;15046;50.930;13.334;2024-02-21T03:45:21;6.40;99.90
27633;DHT22;15046;50.930;13.334;2024-02-21T03:47:47;6.40;99.90
27633;DHT22;15046;50.930;13.334;2024-02-21T03:50:12;6.40;99.90
27633;DHT22;15046;50.930;13.334;2024-02-21T03:52:38;6.40;99.90
27633;DHT22;15046;50.930;13.334;2024-02-21T03:55:04;6.40;99.90
27633;DHT22;15046;50.930;13.334;2024-02-21T03:57:30;6.50;99.90
27633;DHT22;15046;50.930;13.334;2024-02-21T03:59:55;6.50;99.90
27633;DHT22;15046;50.930;13.334;2024-02-21T04:02:21;6.40;99.90
27633;DHT22;15046;50.930;13.334;2024-02-21T04:04:47;6.50;99.90
27633;DHT22;15046;50.930;13.334;2024-02-21T04:07:14;6.50;99.90
27633;DHT22;15046;50.930;13.334;2024-02-21T04:09:40;6.50;99.90
27633;DHT22;15046;50.930;13.334;2024-02-21T04:12:07;6.50;99.90
27633;DHT22;15046;50.930;13.334;2024-02-21T04:14:33;6.50;99.90
27633;DHT22;15046;50.930;13.334;2024-02-21T04:17:00;6.50;99.90
27633;DHT22;15046;50.930;13.334;2024-02-21T04:19:26;6.50;99.90
27633;DHT22;15046;50.930;13.334;2024-02-21T04:21:51;6.50;99.90
27633;DHT22;15046;50.930;13.334;2024-02-21T04:24:17;6.50;99.90
27633;DHT22;15046;50.930;13.334;2024-02-21T04:26:43;6.50;99.90
27633;DHT22;15046;50.930;13.334;2024-02-21T04:29:09;6.40;99.90
27633;DHT22;15046;50.930;13.334;2024-02-21T04:31:35;6.30;99.90
27633;DHT22;15046;50.930;13.334;2024-02-21T04:34:01;6.20;99.90
27633;DHT22;15046;50.930;13.334;2024-02-21T04:36:28;6.10;99.90
27633;DHT22;15046;50.930;13.334;2024-02-21T04:38:54;6.00;99.90
27633;DHT22;15046;50.930;13.334;2024-02-21T04:41:19;6.00;99.90
27633;DHT22;15046;50.930;13.334;2024-02-21T04:43:48;6.00;99.90
27633;DHT22;15046;50.930;13.334;2024-02-21T04:46:14;6.00;99.90
27633;DHT22;15046;50.930;13.334;2024-02-21T04:48:41;6.00;99.90
27633;DHT22;15046;50.930;13.334;2024-02-21T04:51:06;6.00;99.90
27633;DHT22;15046;50.930;13.334;2024-02-21T04:53:32;6.10;99.90
27633;DHT22;15046;50.930;13.334;2024-02-21T04:55:58;6.20;99.90
27633;DHT22;15046;50.930;13.334;2024-02-21T04:58:23;6.20;99.90
27633;DHT22;15046;50.930;13.334;2024-02-21T05:00:49;6.30;99.90
27633;DHT22;15046;50.930;13.334;2024-02-21T05:03:15;6.30;99.90
27633;DHT22;15046;50.930;13.334;2024-02-21T05:05:41;6.30;99.90
27633;DHT22;15046;50.930;13.334;2024-02-21T05:08:07;6.30;99.90
27633;DHT22;15046;50.930;13.334;2024-02-21T05:10:33;6.30;99.90
27633;DHT22;15046;50.930;13.334;2024-02-21T05:12:58;6.30;99.90
27633;DHT22;15046;50.930;13.334;2024-02-21T05:15:25;6.20;99.90
27633;DHT22;15046;50.930;13.334;2024-02-21T05:17:50;6.20;99.90
27633;DHT22;15046;50.930;13.334;2024-02-21T05:20:16;6.20;99.90
27633;DHT22;15046;50.930;13.334;2024-02-21T05:22:42;6.20;99.90
27633;DHT22;15046;50.930;13.334;2024-02-21T05:25:08;6.30;99.90
27633;DHT22;15046;50.930;13.334;2024-02-21T05:27:34;6.30;99.90
27633;DHT22;15046;50.930;13.334;2024-02-21T05:30:01;6.30;99.90
27633;DHT22;15046;50.930;13.334;2024-02-21T05:32:26;6.30;99.90
27633;DHT22;15046;50.930;13.334;2024-02-21T05:34:52;6.30;99.90
27633;DHT22;15046;50.930;13.334;2024-02-21T05:37:18;6.30;99.90
27633;DHT22;15046;50.930;13.334;2024-02-21T05:39:44;6.30;99.90
27633;DHT22;15046;50.930;13.334;2024-02-21T05:42:09;6.40;99.90
27633;DHT22;15046;50.930;13.334;2024-02-21T05:44:35;6.40;99.90
27633;DHT22;15046;50.930;13.334;2024-02-21T05:47:01;6.40;99.90
27633;DHT22;15046;50.930;13.334;2024-02-21T05:49:27;6.40;99.90
27633;DHT22;15046;50.930;13.334;2024-02-21T05:51:52;6.30;99.90
27633;DHT22;15046;50.930;13.334;2024-02-21T05:54:21;6.30;99.90
27633;DHT22;15046;50.930;13.334;2024-02-21T05:56:47;6.30;99.90
27633;DHT22;15046;50.930;13.334;2024-02-21T05:59:13;6.30;99.90
27633;DHT22;15046;50.930;13.334;2024-02-21T06:01:39;6.20;99.90
27633;DHT22;15046;50.930;13.334;2024-02-21T06:04:04;6.20;99.90
27633;DHT22;15046;50.930;13.334;2024-02-21T06:06:30;6.20;99.90
27633;DHT22;15046;50.930;13.334;2024-02-21T06:08:56;6.10;99.90
27633;DHT22;15046;50.930;13.334;2024-02-21T06:11:24;6.10;99.90
27633;DHT22;15046;50.930;13.334;2024-02-21T06:13:50;6.10;99.90
27633;DHT22;15046;50.930;13.334;2024-02-21T06:16:15;6.00;99.90
27633;DHT22;15046;50.930;13.334;2024-02-21T06:18:42;6.10;99.90
27633;DHT22;15046;50.930;13.334;2024-02-21T06:21:07;6.00;99.90
27633;DHT22;15046;50.930;13.334;2024-02-21T06:23:33;6.00;99.90
27633;DHT22;15046;50.930;13.334;2024-02-21T06:25:59;6.00;99.90
27633;DHT22;15046;50.930;13.334;2024-02-21T06:28:25;6.00;99.90
27633;DHT22;15046;50.930;13.334;2024-02-21T06:30:50;6.10;99.90
27633;DHT22;15046;50.930;13.334;2024-02-21T06:33:16;6.10;99.90
27633;DHT22;15046;50.930;13.334;2024-02-21T06:35:42;6.10;99.90
27633;DHT22;15046;50.930;13.334;2024-02-21T06:38:08;6.10;99.90
27633;DHT22;15046;50.930;13.334;2024-02-21T06:40:34;6.10;99.90
27633;DHT22;15046;50.930;13.334;2024-02-21T06:43:04;6.20;99.90
27633;DHT22;15046;50.930;13.334;2024-02-21T06:45:30;6.20;99.90
27633;DHT22;15046;50.930;13.334;2024-02-21T06:47:56;6.30;99.90
27633;DHT22;15046;50.930;13.334;2024-02-21T06:50:21;6.30;99.90
27633;DHT22;15046;50.930;13.334;2024-02-21T06:52:47;6.30;99.90
27633;DHT22;15046;50.930;13.334;2024-02-21T06:55:13;6.40;99.90
27633;DHT22;15046;50.930;13.334;2024-02-21T06:57:39;6.40;99.90
27633;DHT22;15046;50.930;13.334;2024-02-21T07:00:05;6.40;99.90
27633;DHT22;15046;50.930;13.334;2024-02-21T07:02:34;6.50;99.90
27633;DHT22;15046;50.930;13.334;2024-02-21T07:04:59;6.50;99.90
27633;DHT22;15046;50.930;13.334;2024-02-21T07:07:25;6.50;99.90
27633;DHT22;15046;50.930;13.334;2024-02-21T07:09:51;6.50;99.90
27633;DHT22;15046;50.930;13.334;2024-02-21T07:12:17;6.50;99.90
27633;DHT22;15046;50.930;13.334;2024-02-21T07:14:44;6.50;99.90
27633;DHT22;15046;50.930;13.334;2024-02-21T07:17:09;6.60;99.90
27633;DHT22;15046;50.930;13.334;2024-02-21T07:19:35;6.60;99.90
27633;DHT22;15046;50.930;13.334;2024-02-21T07:22:01;6.70;99.90
27633;DHT22;15046;50.930;13.334;2024-02-21T07:24:27;6.70;99.90
27633;DHT22;15046;50.930;13.334;2024-02-21T07:26:52;6.70;99.90
27633;DHT22;15046;50.930;13.334;2024-02-21T07:29:19;6.70;99.90
27633;DHT22;15046;50.930;13.334;2024-02-21T07:31:44;6.80;99.90
27633;DHT22;15046;50.930;13.334;2024-02-21T07:34:10;6.80;99.90
27633;DHT22;15046;50.930;13.334;2024-02-21T07:36:36;6.90;99.90
27633;DHT22;15046;50.930;13.334;2024-02-21T07:39:05;7.00;99.90
27633;DHT22;15046;50.930;13.334;2024-02-21T07:41:31;7.10;99.90
27633;DHT22;15046;50.930;13.334;2024-02-21T07:43:57;7.20;99.90
27633;DHT22;15046;50.930;13.334;2024-02-21T07:46:23;7.20;99.90
27633;DHT22;15046;50.930;13.334;2024-02-21T07:48:50;7.20;99.90
27633;DHT22;15046;50.930;13.334;2024-02-21T07:51:16;7.20;99.90
27633;DHT22;15046;50.930;13.334;2024-02-21T07:53:44;7.20;99.90
27633;DHT22;15046;50.930;13.334;2024-02-21T07:56:14;7.20;99.90
27633;DHT22;15046;50.930;13.334;2024-02-21T07:58:43;7.20;99.90
27633;DHT22;15046;50.930;13.334;2024-02-21T08:01:10;7.20;99.90
27633;DHT22;15046;50.930;13.334;2024-02-21T08:03:36;7.10;99.90
27633;DHT22;15046;50.930;13.334;2024-02-21T08:06:03;7.10;99.90
27633;DHT22;15046;50.930;13.334;2024-02-21T08:08:29;7.00;99.90
27633;DHT22;15046;50.930;13.334;2024-02-21T08:10:55;6.90;99.90
27633;DHT22;15046;50.930;13.334;2024-02-21T08:13:21;6.90;99.90
27633;DHT22;15046;50.930;13.334;2024-02-21T08:15:47;7.00;99.90
27633;DHT22;15046;50.930;13.334;2024-02-21T08:18:12;7.10;99.90
27633;DHT22;15046;50.930;13.334;2024-02-21T08:20:38;7.10;99.90
27633;DHT22;15046;50.930;13.334;2024-02-21T08:23:04;7.20;99.90
27633;DHT22;15046;50.930;13.334;2024-02-21T08:25:30;7.30;99.90
27633;DHT22;15046;50.930;13.334;2024-02-21T08:27:57;7.50;99.90
27633;DHT22;15046;50.930;13.334;2024-02-21T08:30:23;7.60;99.90
27633;DHT22;15046;50.930;13.334;2024-02-21T08:32:49;7.80;99.90
27633;DHT22;15046;50.930;13.334;2024-02-21T08:35:15;8.00;99.90
27633;DHT22;15046;50.930;13.334;2024-02-21T08:37:44;8.10;99.90
27633;DHT22;15046;50.930;13.334;2024-02-21T08:40:10;8.30;99.90
27633;DHT22;15046;50.930;13.334;2024-02-21T08:42:36;8.40;99.90
27633;DHT22;15046;50.930;13.334;2024-02-21T08:45:03;8.60;99.90
27633;DHT22;15046;50.930;13.334;2024-02-21T08:47:29;8.70;99.90
27633;DHT22;15046;50.930;13.334;2024-02-21T08:49:54;8.80;99.90
27633;DHT22;15046;50.930;13.334;2024-02-21T08:52:20;8.70;99.90
27633;DHT22;15046;50.930;13.334;2024-02-21T08:54:46;8.70;99.90
27633;DHT22;15046;50.930;13.334;2024-02-21T08:57:12;8.70;99.90
27633;DHT22;15046;50.930;13.334;2024-02-21T08:59:40;8.60;99.90
27633;DHT22;15046;50.930;13.334;2024-02-21T09:02:05;8.60;99.90
27633;DHT22;15046;50.930;13.334;2024-02-21T09:04:33;8.50;99.90
27633;DHT22;15046;50.930;13.334;2024-02-21T09:06:59;8.50;99.90
27633;DHT22;15046;50.930;13.334;2024-02-21T09:09:25;8.50;99.90
27633;DHT22;15046;50.930;13.334;2024-02-21T09:11:51;8.50;99.90
27633;DHT22;15046;50.930;13.334;2024-02-21T09:14:17;8.50;99.90
27633;DHT22;15046;50.930;13.334;2024-02-21T09:16:43;8.50;99.90
27633;DHT22;15046;50.930;13.334;2024-02-21T09:19:09;8.60;99.90
27633;DHT22;15046;50.930;13.334;2024-02-21T09:21:37;8.60;99.90
27633;DHT22;15046;50.930;13.334;2024-02-21T09:24:04;8.70;99.90
27633;DHT22;15046;50.930;13.334;2024-02-21T09:26:30;8.70;99.90
27633;DHT22;15046;50.930;13.334;2024-02-21T09:28:56;8.60;99.90
27633;DHT22;15046;50.930;13.334;2024-02-21T09:31:22;8.60;99.90
27633;DHT22;15046;50.930;13.334;2024-02-21T09:33:48;8.70;99.90
27633;DHT22;15046;50.930;13.334;2024-02-21T09:36:14;8.90;99.90
27633;DHT22;15046;50.930;13.334;2024-02-21T09:38:40;9.10;99.90
27633;DHT22;15046;50.930;13.334;2024-02-21T09:41:17;9.20;99.90
27633;DHT22;15046;50.930;13.334;2024-02-21T09:43:45;9.20;99.90
27633;DHT22;15046;50.930;13.334;2024-02-21T09:46:18;9.10;99.90
27633;DHT22;15046;50.930;13.334;2024-02-21T09:51:30;8.90;99.90
27633;DHT22;15046;50.930;13.334;2024-02-21T09:53:58;8.90;99.90
27633;DHT22;15046;50.930;13.334;2024-02-21T09:56:25;8.80;99.90
27633;DHT22;15046;50.930;13.334;2024-02-21T09:58:50;8.80;99.90
27633;DHT22;15046;50.930;13.334;2024-02-21T10:01:16;8.70;99.90
27633;DHT22;15046;50.930;13.334;2024-02-21T10:03:42;8.70;99.90
27633;DHT22;15046;50.930;13.334;2024-02-21T10:06:09;8.70;99.90
27633;DHT22;15046;50.930;13.334;2024-02-21T10:08:35;8.60;99.90
27633;DHT22;15046;50.930;13.334;2024-02-21T10:11:00;8.70;99.90
27633;DHT22;15046;50.930;13.334;2024-02-21T10:13:31;8.70;99.90
27633;DHT22;15046;50.930;13.334;2024-02-21T10:16:04;8.80;99.90
27633;DHT22;15046;50.930;13.334;2024-02-21T10:18:30;8.80;99.90
27633;DHT22;15046;50.930;13.334;2024-02-21T10:21:02;8.80;99.90
27633;DHT22;15046;50.930;13.334;2024-02-21T10:23:29;8.80;99.90
27633;DHT22;15046;50.930;13.334;2024-02-21T10:26:05;8.70;99.90
27633;DHT22;15046;50.930;13.334;2024-02-21T10:28:31;8.80;99.90
27633;DHT22;15046;50.930;13.334;2024-02-21T10:30:57;8.70;99.90
27633;DHT22;15046;50.930;13.334;2024-02-21T10:33:23;8.70;99.90
27633;DHT22;15046;50.930;13.334;2024-02-21T10:35:50;8.60;99.90
27633;DHT22;15046;50.930;13.334;2024-02-21T10:38:17;8.60;99.90
27633;DHT22;15046;50.930;13.334;2024-02-21T10:40:42;8.50;99.90
27633;DHT22;15046;50.930;13.334;2024-02-21T10:43:12;8.50;99.90
27633;DHT22;15046;50.930;13.334;2024-02-21T10:45:41;8.50;99.90
27633;DHT22;15046;50.930;13.334;2024-02-21T10:48:21;8.50;99.90
27633;DHT22;15046;50.930;13.334;2024-02-21T10:50:57;8.50;99.90
27633;DHT22;15046;50.930;13.334;2024-02-21T10:56:29;8.50;99.90
27633;DHT22;15046;50.930;13.334;2024-02-21T10:58:58;8.50;99.90
27633;DHT22;15046;50.930;13.334;2024-02-21T11:01:24;8.50;99.90
27633;DHT22;15046;50.930;13.334;2024-02-21T11:03:53;8.50;99.90
27633;DHT22;15046;50.930;13.334;2024-02-21T11:06:20;8.50;99.90
27633;DHT22;15046;50.930;13.334;2024-02-21T11:08:47;8.50;99.90
27633;DHT22;15046;50.930;13.334;2024-02-21T11:11:14;8.60;99.90
27633;DHT22;15046;50.930;13.334;2024-02-21T11:13:44;8.70;99.90
27633;DHT22;15046;50.930;13.334;2024-02-21T11:16:20;8.80;99.90
27633;DHT22;15046;50.930;13.334;2024-02-21T11:18:47;8.80;99.90
27633;DHT22;15046;50.930;13.334;2024-02-21T11:21:12;8.90;99.90
27633;DHT22;15046;50.930;13.334;2024-02-21T11:23:38;9.10;99.90
27633;DHT22;15046;50.930;13.334;2024-02-21T11:28:31;9.60;99.90
27633;DHT22;15046;50.930;13.334;2024-02-21T11:31:08;10.00;99.90
27633;DHT22;15046;50.930;13.334;2024-02-21T11:33:34;10.30;99.90
27633;DHT22;15046;50.930;13.334;2024-02-21T11:36:01;10.40;99.90
27633;DHT22;15046;50.930;13.334;2024-02-21T11:38:29;10.70;99.90
27633;DHT22;15046;50.930;13.334;2024-02-21T11:40:55;11.20;99.90
27633;DHT22;15046;50.930;13.334;2024-02-21T11:43:21;12.10;99.90
27633;DHT22;15046;50.930;13.334;2024-02-21T11:45:47;13.00;99.90
27633;DHT22;15046;50.930;13.334;2024-02-21T11:48:13;14.80;99.90
27633;DHT22;15046;50.930;13.334;2024-02-21T11:50:39;16.40;99.90
27633;DHT22;15046;50.930;13.334;2024-02-21T11:53:05;17.70;96.50
27633;DHT22;15046;50.930;13.334;2024-02-21T11:55:31;18.70;93.20
27633;DHT22;15046;50.930;13.334;2024-02-21T11:57:56;19.40;90.10
27633;DHT22;15046;50.930;13.334;2024-02-21T12:00:23;19.30;85.90
27633;DHT22;15046;50.930;13.334;2024-02-21T12:02:51;19.20;85.60
27633;DHT22;15046;50.930;13.334;2024-02-21T12:05:19;19.90;83.00
27633;DHT22;15046;50.930;13.334;2024-02-21T12:07:45;20.60;80.10
27633;DHT22;15046;50.930;13.334;2024-02-21T12:10:12;20.90;77.60
27633;DHT22;15046;50.930;13.334;2024-02-21T12:12:39;21.40;75.50
27633;DHT22;15046;50.930;13.334;2024-02-21T12:15:07;21.30;73.20
27633;DHT22;15046;50.930;13.334;2024-02-21T12:17:36;21.70;72.80
27633;DHT22;15046;50.930;13.334;2024-02-21T12:20:03;22.10;70.50
27633;DHT22;15046;50.930;13.334;2024-02-21T12:22:31;22.50;70.00
27633;DHT22;15046;50.930;13.334;2024-02-21T12:25:03;22.90;68.10
27633;DHT22;15046;50.930;13.334;2024-02-21T12:27:29;23.10;66.30
27633;DHT22;15046;50.930;13.334;2024-02-21T12:29:55;23.10;65.60
27633;DHT22;15046;50.930;13.334;2024-02-21T12:32:21;22.50;64.60
27633;DHT22;15046;50.930;13.334;2024-02-21T12:34:47;22.30;64.30
27633;DHT22;15046;50.930;13.334;2024-02-21T12:37:12;22.20;64.00
27633;DHT22;15046;50.930;13.334;2024-02-21T12:39:38;22.20;63.00
27633;DHT22;15046;50.930;13.334;2024-02-21T12:42:04;22.10;62.30
27633;DHT22;15046;50.930;13.334;2024-02-21T12:44:30;22.20;62.20
27633;DHT22;15046;50.930;13.334;2024-02-21T12:46:57;22.30;60.90
27633;DHT22;15046;50.930;13.334;2024-02-21T12:49:23;22.30;59.50
27633;DHT22;15046;50.930;13.334;2024-02-21T12:51:49;22.10;59.10
27633;DHT22;15046;50.930;13.334;2024-02-21T12:54:15;21.90;59.10
27633;DHT22;15046;50.930;13.334;2024-02-21T12:56:41;21.40;59.00
27633;DHT22;15046;50.930;13.334;2024-02-21T12:59:06;21.30;60.00
27633;DHT22;15046;50.930;13.334;2024-02-21T13:01:38;21.80;59.70
27633;DHT22;15046;50.930;13.334;2024-02-21T13:04:04;21.60;59.10
27633;DHT22;15046;50.930;13.334;2024-02-21T13:06:29;21.20;59.70
27633;DHT22;15046;50.930;13.334;2024-02-21T13:08:55;21.10;59.90
27633;DHT22;15046;50.930;13.334;2024-02-21T13:11:21;21.40;60.00
27633;DHT22;15046;50.930;13.334;2024-02-21T13:13:47;21.50;59.20
27633;DHT22;15046;50.930;13.334;2024-02-21T13:16:14;21.50;59.50
27633;DHT22;15046;50.930;13.334;2024-02-21T13:18:39;21.30;58.80
27633;DHT22;15046;50.930;13.334;2024-02-21T13:21:08;21.40;58.50
27633;DHT22;15046;50.930;13.334;2024-02-21T13:23:34;21.80;58.10
27633;DHT22;15046;50.930;13.334;2024-02-21T13:26:00;22.00;57.60
27633;DHT22;15046;50.930;13.334;2024-02-21T13:28:25;22.10;57.70
27633;DHT22;15046;50.930;13.334;2024-02-21T13:30:51;22.30;57.30
27633;DHT22;15046;50.930;13.334;2024-02-21T13:33:17;22.10;57.00
27633;DHT22;15046;50.930;13.334;2024-02-21T13:35:43;21.90;56.40
27633;DHT22;15046;50.930;13.334;2024-02-21T13:38:12;21.40;56.20
27633;DHT22;15046;50.930;13.334;2024-02-21T13:40:37;21.20;57.10
27633;DHT22;15046;50.930;13.334;2024-02-21T13:43:03;21.40;56.70
27633;DHT22;15046;50.930;13.334;2024-02-21T13:45:29;21.30;56.30
27633;DHT22;15046;50.930;13.334;2024-02-21T13:47:57;21.40;56.70
27633;DHT22;15046;50.930;13.334;2024-02-21T13:50:29;21.90;55.90
27633;DHT22;15046;50.930;13.334;2024-02-21T13:52:56;22.10;54.80
27633;DHT22;15046;50.930;13.334;2024-02-21T13:55:22;21.90;54.90
27633;DHT22;15046;50.930;13.334;2024-02-21T13:57:47;21.40;55.00
27633;DHT22;15046;50.930;13.334;2024-02-21T14:00:14;20.90;55.30
27633;DHT22;15046;50.930;13.334;2024-02-21T14:02:40;20.40;55.80
27633;DHT22;15046;50.930;13.334;2024-02-21T14:05:06;20.10;56.80
27633;DHT22;15046;50.930;13.334;2024-02-21T14:07:32;20.20;57.00
27633;DHT22;15046;50.930;13.334;2024-02-21T14:10:01;20.40;56.90
27633;DHT22;15046;50.930;13.334;2024-02-21T14:12:27;20.60;57.00
27633;DHT22;15046;50.930;13.334;2024-02-21T14:14:53;20.60;56.50
27633;DHT22;15046;50.930;13.334;2024-02-21T14:17:19;20.70;56.00
27633;DHT22;15046;50.930;13.334;2024-02-21T14:19:45;20.60;56.00
27633;DHT22;15046;50.930;13.334;2024-02-21T14:22:11;20.60;55.90
27633;DHT22;15046;50.930;13.334;2024-02-21T14:24:37;20.60;56.30
27633;DHT22;15046;50.930;13.334;2024-02-21T14:27:03;20.50;56.70
27633;DHT22;15046;50.930;13.334;2024-02-21T14:29:29;20.40;56.60
27633;DHT22;15046;50.930;13.334;2024-02-21T14:31:55;20.10;56.90
27633;DHT22;15046;50.930;13.334;2024-02-21T14:34:21;19.70;56.90
27633;DHT22;15046;50.930;13.334;2024-02-21T14:36:47;19.30;56.80
27633;DHT22;15046;50.930;13.334;2024-02-21T14:39:12;19.10;57.00
27633;DHT22;15046;50.930;13.334;2024-02-21T14:41:39;18.60;57.20
27633;DHT22;15046;50.930;13.334;2024-02-21T14:44:05;18.30;57.60
27633;DHT22;15046;50.930;13.334;2024-02-21T14:46:31;18.00;58.10
27633;DHT22;15046;50.930;13.334;2024-02-21T14:48:57;17.60;58.40
27633;DHT22;15046;50.930;13.334;2024-02-21T14:51:23;17.20;58.70
27633;DHT22;15046;50.930;13.334;2024-02-21T14:53:49;16.90;59.20
27633;DHT22;15046;50.930;13.334;2024-02-21T14:56:15;17.00;59.80
27633;DHT22;15046;50.930;13.334;2024-02-21T14:58:43;17.20;59.40
27633;DHT22;15046;50.930;13.334;2024-02-21T15:01:09;17.20;59.30
27633;DHT22;15046;50.930;13.334;2024-02-21T15:03:35;17.10;59.30
27633;DHT22;15046;50.930;13.334;2024-02-21T15:06:02;16.80;59.90
27633;DHT22;15046;50.930;13.334;2024-02-21T15:08:27;16.50;60.20
27633;DHT22;15046;50.930;13.334;2024-02-21T15:10:54;16.10;60.60
27633;DHT22;15046;50.930;13.334;2024-02-21T15:13:19;15.80;61.20
27633;DHT22;15046;50.930;13.334;2024-02-21T15:15:46;15.40;61.80
27633;DHT22;15046;50.930;13.334;2024-02-21T15:18:14;15.00;62.50
27633;DHT22;15046;50.930;13.334;2024-02-21T15:20:40;14.60;63.40
27633;DHT22;15046;50.930;13.334;2024-02-21T15:23:06;14.40;64.20
27633;DHT22;15046;50.930;13.334;2024-02-21T15:25:32;14.20;64.70
27633;DHT22;15046;50.930;13.334;2024-02-21T15:27:59;14.10;65.40
27633;DHT22;15046;50.930;13.334;2024-02-21T15:30:25;13.80;64.90